sensor_id;sensor_type;location;lat;lon;timestamp;temperature;humidity
254;DHT22;590;48.772;8.846;2022-09-17T00:01:40;11.60;86.00
254;DHT22;590;48.772;8.846;2022-09-17T00:04:10;11.50;85.70
254;DHT22;590;48.772;8.846;2022-09-17T00:06:38;11.50;85.70
254;DHT22;590;48.772;8.846;2022-09-17T00:09:07;11.50;86.20
254;DHT22;590;48.772;8.846;2022-09-17T00:11:38;11.40;86.80
254;DHT22;590;48.772;8.846;2022-09-17T00:14:09;11.40;87.60
254;DHT22;590;48.772;8.846;2022-09-17T00:16:40;11.50;88.50
254;DHT22;590;48.772;8.846;2022-09-17T00:19:15;11.50;87.70
254;DHT22;590;48.772;8.846;2022-09-17T00:21:44;11.50;88.00
254;DHT22;590;48.772;8.846;2022-09-17T00:24:16;11.50;87.90
254;DHT22;590;48.772;8.846;2022-09-17T00:26:44;11.50;87.70
254;DHT22;590;48.772;8.846;2022-09-17T00:29:12;11.50;87.40
254;DHT22;590;48.772;8.846;2022-09-17T00:31:40;11.50;87.30
254;DHT22;590;48.772;8.846;2022-09-17T00:34:09;11.60;87.70
254;DHT22;590;48.772;8.846;2022-09-17T00:36:39;11.60;88.10
254;DHT22;590;48.772;8.846;2022-09-17T00:39:09;11.60;88.10
254;DHT22;590;48.772;8.846;2022-09-17T00:41:43;11.60;88.70
254;DHT22;590;48.772;8.846;2022-09-17T00:44:38;11.60;89.20
254;DHT22;590;48.772;8.846;2022-09-17T00:47:11;11.60;88.80
254;DHT22;590;48.772;8.846;2022-09-17T00:49:40;11.60;88.30
254;DHT22;590;48.772;8.846;2022-09-17T00:52:13;11.60;87.60
254;DHT22;590;48.772;8.846;2022-09-17T00:54:56;11.60;87.80
254;DHT22;590;48.772;8.846;2022-09-17T00:57:25;11.60;88.00
254;DHT22;590;48.772;8.846;2022-09-17T00:59:53;11.60;88.00
254;DHT22;590;48.772;8.846;2022-09-17T01:02:22;11.60;87.60
254;DHT22;590;48.772;8.846;2022-09-17T01:04:50;11.60;87.20
254;DHT22;590;48.772;8.846;2022-09-17T01:07:43;11.70;87.50
254;DHT22;590;48.772;8.846;2022-09-17T01:10:23;11.70;87.00
254;DHT22;590;48.772;8.846;2022-09-17T01:13:05;11.60;86.40
254;DHT22;590;48.772;8.846;2022-09-17T01:15:57;11.60;86.30
254;DHT22;590;48.772;8.846;2022-09-17T01:18:35;11.60;86.10
254;DHT22;590;48.772;8.846;2022-09-17T01:24:45;11.60;85.40
254;DHT22;590;48.772;8.846;2022-09-17T01:27:59;11.50;84.90
254;DHT22;590;48.772;8.846;2022-09-17T01:30:52;11.50;84.90
254;DHT22;590;48.772;8.846;2022-09-17T01:33:26;11.50;85.60
254;DHT22;590;48.772;8.846;2022-09-17T01:36:05;11.50;85.90
254;DHT22;590;48.772;8.846;2022-09-17T01:38:41;11.50;85.00
254;DHT22;590;48.772;8.846;2022-09-17T01:41:17;11.40;85.40
254;DHT22;590;48.772;8.846;2022-09-17T01:43:51;11.50;86.00
254;DHT22;590;48.772;8.846;2022-09-17T01:46:29;11.50;86.20
254;DHT22;590;48.772;8.846;2022-09-17T01:49:01;11.50;86.30
254;DHT22;590;48.772;8.846;2022-09-17T01:51:35;11.50;85.50
254;DHT22;590;48.772;8.846;2022-09-17T01:54:06;11.50;85.00
254;DHT22;590;48.772;8.846;2022-09-17T01:56:39;11.50;85.00
254;DHT22;590;48.772;8.846;2022-09-17T01:59:20;11.50;84.60
254;DHT22;590;48.772;8.846;2022-09-17T02:01:53;11.50;85.00
254;DHT22;590;48.772;8.846;2022-09-17T02:04:25;11.50;85.00
254;DHT22;590;48.772;8.846;2022-09-17T02:06:59;11.50;84.90
254;DHT22;590;48.772;8.846;2022-09-17T02:09:32;11.50;84.30
254;DHT22;590;48.772;8.846;2022-09-17T02:12:05;11.50;84.80
254;DHT22;590;48.772;8.846;2022-09-17T02:14:37;11.50;85.00
254;DHT22;590;48.772;8.846;2022-09-17T02:17:12;11.50;85.30
254;DHT22;590;48.772;8.846;2022-09-17T02:19:42;11.50;85.10
254;DHT22;590;48.772;8.846;2022-09-17T02:22:19;11.50;85.20
254;DHT22;590;48.772;8.846;2022-09-17T02:24:55;11.40;85.60
254;DHT22;590;48.772;8.846;2022-09-17T02:27:33;11.40;86.10
254;DHT22;590;48.772;8.846;2022-09-17T02:30:07;11.50;86.30
254;DHT22;590;48.772;8.846;2022-09-17T02:32:37;11.40;85.60
254;DHT22;590;48.772;8.846;2022-09-17T02:35:06;11.40;85.50
254;DHT22;590;48.772;8.846;2022-09-17T02:37:34;11.40;85.20
254;DHT22;590;48.772;8.846;2022-09-17T02:40:02;11.40;85.50
254;DHT22;590;48.772;8.846;2022-09-17T02:42:40;11.40;85.60
254;DHT22;590;48.772;8.846;2022-09-17T02:45:18;11.40;85.40
254;DHT22;590;48.772;8.846;2022-09-17T02:48:17;11.40;84.80
254;DHT22;590;48.772;8.846;2022-09-17T02:51:13;11.30;85.10
254;DHT22;590;48.772;8.846;2022-09-17T02:53:49;11.30;85.40
254;DHT22;590;48.772;8.846;2022-09-17T02:56:29;11.20;85.50
254;DHT22;590;48.772;8.846;2022-09-17T02:59:07;11.20;85.50
254;DHT22;590;48.772;8.846;2022-09-17T03:01:42;11.20;86.00
254;DHT22;590;48.772;8.846;2022-09-17T03:04:14;11.10;86.60
254;DHT22;590;48.772;8.846;2022-09-17T03:06:45;11.10;86.20
254;DHT22;590;48.772;8.846;2022-09-17T03:09:13;11.10;86.10
254;DHT22;590;48.772;8.846;2022-09-17T03:11:42;11.00;86.10
254;DHT22;590;48.772;8.846;2022-09-17T03:14:09;11.00;86.20
254;DHT22;590;48.772;8.846;2022-09-17T03:16:37;11.00;86.60
254;DHT22;590;48.772;8.846;2022-09-17T03:19:05;10.90;87.10
254;DHT22;590;48.772;8.846;2022-09-17T03:21:35;10.90;87.30
254;DHT22;590;48.772;8.846;2022-09-17T03:24:03;10.80;87.50
254;DHT22;590;48.772;8.846;2022-09-17T03:26:31;10.80;87.60
254;DHT22;590;48.772;8.846;2022-09-17T03:28:59;10.80;87.90
254;DHT22;590;48.772;8.846;2022-09-17T03:31:27;10.70;88.50
254;DHT22;590;48.772;8.846;2022-09-17T03:33:55;10.70;89.10
254;DHT22;590;48.772;8.846;2022-09-17T03:36:24;10.70;89.70
254;DHT22;590;48.772;8.846;2022-09-17T03:38:54;10.70;89.60
254;DHT22;590;48.772;8.846;2022-09-17T03:41:23;10.70;89.30
254;DHT22;590;48.772;8.846;2022-09-17T03:43:51;10.70;89.90
254;DHT22;590;48.772;8.846;2022-09-17T03:46:19;10.70;90.10
254;DHT22;590;48.772;8.846;2022-09-17T03:48:47;10.70;90.40
254;DHT22;590;48.772;8.846;2022-09-17T03:51:15;10.70;90.40
254;DHT22;590;48.772;8.846;2022-09-17T03:53:43;10.70;90.30
254;DHT22;590;48.772;8.846;2022-09-17T03:56:12;10.70;90.20
254;DHT22;590;48.772;8.846;2022-09-17T03:58:40;10.70;90.10
254;DHT22;590;48.772;8.846;2022-09-17T04:01:09;10.70;90.10
254;DHT22;590;48.772;8.846;2022-09-17T04:03:37;10.80;90.30
254;DHT22;590;48.772;8.846;2022-09-17T04:06:06;10.80;90.40
254;DHT22;590;48.772;8.846;2022-09-17T04:08:34;10.80;90.20
254;DHT22;590;48.772;8.846;2022-09-17T04:11:02;10.70;90.00
254;DHT22;590;48.772;8.846;2022-09-17T04:13:31;10.70;89.80
254;DHT22;590;48.772;8.846;2022-09-17T04:15:59;10.70;89.70
254;DHT22;590;48.772;8.846;2022-09-17T04:18:28;10.70;89.70
254;DHT22;590;48.772;8.846;2022-09-17T04:20:56;10.60;90.00
254;DHT22;590;48.772;8.846;2022-09-17T04:23:24;10.60;90.00
254;DHT22;590;48.772;8.846;2022-09-17T04:25:52;10.60;89.60
254;DHT22;590;48.772;8.846;2022-09-17T04:28:20;10.60;90.00
254;DHT22;590;48.772;8.846;2022-09-17T04:30:49;10.60;89.50
254;DHT22;590;48.772;8.846;2022-09-17T04:33:17;10.60;89.00
254;DHT22;590;48.772;8.846;2022-09-17T04:35:45;10.60;88.90
254;DHT22;590;48.772;8.846;2022-09-17T04:38:14;10.50;89.00
254;DHT22;590;48.772;8.846;2022-09-17T04:40:44;10.60;89.50
254;DHT22;590;48.772;8.846;2022-09-17T04:43:12;10.60;90.10
254;DHT22;590;48.772;8.846;2022-09-17T04:45:40;10.60;90.00
254;DHT22;590;48.772;8.846;2022-09-17T04:48:09;10.60;89.70
254;DHT22;590;48.772;8.846;2022-09-17T04:50:37;10.60;90.00
254;DHT22;590;48.772;8.846;2022-09-17T04:53:05;10.50;89.80
254;DHT22;590;48.772;8.846;2022-09-17T04:55:34;10.50;89.60
254;DHT22;590;48.772;8.846;2022-09-17T04:58:02;10.50;89.40
254;DHT22;590;48.772;8.846;2022-09-17T05:00:30;10.40;89.20
254;DHT22;590;48.772;8.846;2022-09-17T05:02:58;10.40;89.80
254;DHT22;590;48.772;8.846;2022-09-17T05:05:27;10.40;90.10
254;DHT22;590;48.772;8.846;2022-09-17T05:07:55;10.30;90.60
254;DHT22;590;48.772;8.846;2022-09-17T05:10:23;10.30;90.70
254;DHT22;590;48.772;8.846;2022-09-17T05:12:53;10.30;91.10
254;DHT22;590;48.772;8.846;2022-09-17T05:15:22;10.30;91.30
254;DHT22;590;48.772;8.846;2022-09-17T05:17:51;10.40;91.50
254;DHT22;590;48.772;8.846;2022-09-17T05:20:19;10.40;91.60
254;DHT22;590;48.772;8.846;2022-09-17T05:22:50;10.40;91.80
254;DHT22;590;48.772;8.846;2022-09-17T05:25:20;10.50;91.80
254;DHT22;590;48.772;8.846;2022-09-17T05:27:50;10.50;91.80
254;DHT22;590;48.772;8.846;2022-09-17T05:30:18;10.60;91.80
254;DHT22;590;48.772;8.846;2022-09-17T05:32:47;10.60;91.80
254;DHT22;590;48.772;8.846;2022-09-17T05:35:15;10.60;91.60
254;DHT22;590;48.772;8.846;2022-09-17T05:37:43;10.70;91.50
254;DHT22;590;48.772;8.846;2022-09-17T05:40:12;10.80;91.30
254;DHT22;590;48.772;8.846;2022-09-17T05:42:41;10.80;90.90
254;DHT22;590;48.772;8.846;2022-09-17T05:45:10;10.90;90.70
254;DHT22;590;48.772;8.846;2022-09-17T05:47:37;11.00;90.60
254;DHT22;590;48.772;8.846;2022-09-17T05:50:06;11.10;90.10
254;DHT22;590;48.772;8.846;2022-09-17T05:52:34;11.20;89.80
254;DHT22;590;48.772;8.846;2022-09-17T05:55:02;11.30;88.50
254;DHT22;590;48.772;8.846;2022-09-17T05:57:32;11.30;88.00
254;DHT22;590;48.772;8.846;2022-09-17T06:00:00;11.40;87.80
254;DHT22;590;48.772;8.846;2022-09-17T06:02:28;11.40;87.30
254;DHT22;590;48.772;8.846;2022-09-17T06:04:56;11.30;86.90
254;DHT22;590;48.772;8.846;2022-09-17T06:07:26;11.30;87.00
254;DHT22;590;48.772;8.846;2022-09-17T06:09:54;11.30;87.20
254;DHT22;590;48.772;8.846;2022-09-17T06:12:22;11.30;87.10
254;DHT22;590;48.772;8.846;2022-09-17T06:14:52;11.30;87.00
254;DHT22;590;48.772;8.846;2022-09-17T06:17:20;11.30;86.70
254;DHT22;590;48.772;8.846;2022-09-17T06:19:48;11.30;86.50
254;DHT22;590;48.772;8.846;2022-09-17T06:22:17;11.30;86.30
254;DHT22;590;48.772;8.846;2022-09-17T06:24:46;11.30;85.50
254;DHT22;590;48.772;8.846;2022-09-17T06:27:14;11.30;84.40
254;DHT22;590;48.772;8.846;2022-09-17T06:29:42;11.30;84.00
254;DHT22;590;48.772;8.846;2022-09-17T06:32:11;11.30;82.90
254;DHT22;590;48.772;8.846;2022-09-17T06:34:42;11.30;82.90
254;DHT22;590;48.772;8.846;2022-09-17T06:37:10;11.30;83.90
254;DHT22;590;48.772;8.846;2022-09-17T06:39:38;11.40;83.50
254;DHT22;590;48.772;8.846;2022-09-17T06:42:07;11.40;83.30
254;DHT22;590;48.772;8.846;2022-09-17T06:44:34;11.40;83.30
254;DHT22;590;48.772;8.846;2022-09-17T06:47:03;11.50;83.40
254;DHT22;590;48.772;8.846;2022-09-17T06:49:32;11.50;83.10
254;DHT22;590;48.772;8.846;2022-09-17T06:52:00;11.50;83.10
254;DHT22;590;48.772;8.846;2022-09-17T06:54:29;11.50;83.40
254;DHT22;590;48.772;8.846;2022-09-17T06:56:57;11.50;83.90
254;DHT22;590;48.772;8.846;2022-09-17T06:59:25;11.50;84.80
254;DHT22;590;48.772;8.846;2022-09-17T07:01:54;11.60;85.80
254;DHT22;590;48.772;8.846;2022-09-17T07:04:22;11.60;85.90
254;DHT22;590;48.772;8.846;2022-09-17T07:06:51;11.60;85.40
254;DHT22;590;48.772;8.846;2022-09-17T07:09:19;11.60;85.60
254;DHT22;590;48.772;8.846;2022-09-17T07:11:47;11.60;85.60
254;DHT22;590;48.772;8.846;2022-09-17T07:14:15;11.70;85.70
254;DHT22;590;48.772;8.846;2022-09-17T07:16:44;11.70;85.50
254;DHT22;590;48.772;8.846;2022-09-17T07:19:12;11.70;85.70
254;DHT22;590;48.772;8.846;2022-09-17T07:21:40;11.70;86.30
254;DHT22;590;48.772;8.846;2022-09-17T07:24:10;11.70;86.30
254;DHT22;590;48.772;8.846;2022-09-17T07:26:38;11.70;86.90
254;DHT22;590;48.772;8.846;2022-09-17T07:29:06;11.70;88.70
254;DHT22;590;48.772;8.846;2022-09-17T07:31:33;11.70;89.10
254;DHT22;590;48.772;8.846;2022-09-17T07:34:01;11.70;88.40
254;DHT22;590;48.772;8.846;2022-09-17T07:36:29;11.60;89.20
254;DHT22;590;48.772;8.846;2022-09-17T07:38:57;11.60;89.20
254;DHT22;590;48.772;8.846;2022-09-17T07:41:27;11.60;90.00
254;DHT22;590;48.772;8.846;2022-09-17T07:43:55;11.60;90.60
254;DHT22;590;48.772;8.846;2022-09-17T07:46:23;11.60;91.20
254;DHT22;590;48.772;8.846;2022-09-17T07:48:51;11.70;91.00
254;DHT22;590;48.772;8.846;2022-09-17T07:51:20;11.80;91.00
254;DHT22;590;48.772;8.846;2022-09-17T07:53:51;11.90;91.10
254;DHT22;590;48.772;8.846;2022-09-17T07:56:19;12.10;90.80
254;DHT22;590;48.772;8.846;2022-09-17T07:58:48;12.20;90.60
254;DHT22;590;48.772;8.846;2022-09-17T08:01:17;12.30;89.80
254;DHT22;590;48.772;8.846;2022-09-17T08:03:48;12.40;89.90
254;DHT22;590;48.772;8.846;2022-09-17T08:06:17;12.40;89.20
254;DHT22;590;48.772;8.846;2022-09-17T08:08:46;12.40;89.20
254;DHT22;590;48.772;8.846;2022-09-17T08:11:16;12.50;89.70
254;DHT22;590;48.772;8.846;2022-09-17T08:14:08;12.60;86.90
254;DHT22;590;48.772;8.846;2022-09-17T08:16:39;12.90;87.10
254;DHT22;590;48.772;8.846;2022-09-17T08:19:07;13.00;86.30
254;DHT22;590;48.772;8.846;2022-09-17T08:21:36;13.10;82.70
254;DHT22;590;48.772;8.846;2022-09-17T08:24:04;13.20;82.10
254;DHT22;590;48.772;8.846;2022-09-17T08:26:32;13.30;80.60
254;DHT22;590;48.772;8.846;2022-09-17T08:29:00;13.30;78.20
254;DHT22;590;48.772;8.846;2022-09-17T08:31:29;13.40;78.00
254;DHT22;590;48.772;8.846;2022-09-17T08:33:59;13.80;78.70
254;DHT22;590;48.772;8.846;2022-09-17T08:36:27;14.20;76.70
254;DHT22;590;48.772;8.846;2022-09-17T08:38:55;14.60;68.40
254;DHT22;590;48.772;8.846;2022-09-17T08:41:29;15.00;67.30
254;DHT22;590;48.772;8.846;2022-09-17T08:44:10;15.40;65.60
254;DHT22;590;48.772;8.846;2022-09-17T08:46:46;15.80;61.10
254;DHT22;590;48.772;8.846;2022-09-17T08:49:21;16.00;57.70
254;DHT22;590;48.772;8.846;2022-09-17T08:52:05;16.10;54.80
254;DHT22;590;48.772;8.846;2022-09-17T08:54:41;16.10;48.90
254;DHT22;590;48.772;8.846;2022-09-17T08:57:17;15.90;49.60
254;DHT22;590;48.772;8.846;2022-09-17T08:59:54;15.70;48.10
254;DHT22;590;48.772;8.846;2022-09-17T09:02:35;15.50;48.60
254;DHT22;590;48.772;8.846;2022-09-17T09:05:09;15.30;50.10
254;DHT22;590;48.772;8.846;2022-09-17T09:07:43;15.10;52.90
254;DHT22;590;48.772;8.846;2022-09-17T09:10:17;15.00;54.80
254;DHT22;590;48.772;8.846;2022-09-17T09:12:48;15.00;53.70
254;DHT22;590;48.772;8.846;2022-09-17T09:15:24;14.90;54.80
254;DHT22;590;48.772;8.846;2022-09-17T09:17:57;14.90;56.20
254;DHT22;590;48.772;8.846;2022-09-17T09:20:33;14.90;56.50
254;DHT22;590;48.772;8.846;2022-09-17T09:23:06;14.90;54.50
254;DHT22;590;48.772;8.846;2022-09-17T09:25:53;14.90;53.50
254;DHT22;590;48.772;8.846;2022-09-17T09:28:41;14.90;52.90
254;DHT22;590;48.772;8.846;2022-09-17T09:31:22;14.80;51.60
254;DHT22;590;48.772;8.846;2022-09-17T09:33:54;14.70;52.60
254;DHT22;590;48.772;8.846;2022-09-17T09:36:27;14.70;52.50
254;DHT22;590;48.772;8.846;2022-09-17T09:38:58;14.70;52.60
254;DHT22;590;48.772;8.846;2022-09-17T09:41:33;14.70;53.20
254;DHT22;590;48.772;8.846;2022-09-17T09:44:06;14.60;52.30
254;DHT22;590;48.772;8.846;2022-09-17T09:49:39;14.70;51.90
254;DHT22;590;48.772;8.846;2022-09-17T09:52:25;14.80;51.30
254;DHT22;590;48.772;8.846;2022-09-17T09:55:09;14.90;50.30
254;DHT22;590;48.772;8.846;2022-09-17T09:57:44;15.10;50.90
254;DHT22;590;48.772;8.846;2022-09-17T10:00:25;15.20;48.80
254;DHT22;590;48.772;8.846;2022-09-17T10:03:00;15.20;48.40
254;DHT22;590;48.772;8.846;2022-09-17T10:05:30;15.40;48.40
254;DHT22;590;48.772;8.846;2022-09-17T10:07:58;15.60;48.20
254;DHT22;590;48.772;8.846;2022-09-17T10:10:26;15.90;45.80
254;DHT22;590;48.772;8.846;2022-09-17T10:13:05;16.20;44.90
254;DHT22;590;48.772;8.846;2022-09-17T10:15:33;16.50;40.00
254;DHT22;590;48.772;8.846;2022-09-17T10:18:14;16.70;39.00
254;DHT22;590;48.772;8.846;2022-09-17T10:20:55;16.90;37.90
254;DHT22;590;48.772;8.846;2022-09-17T10:23:26;17.10;37.20
254;DHT22;590;48.772;8.846;2022-09-17T10:25:55;17.20;33.80
254;DHT22;590;48.772;8.846;2022-09-17T10:28:46;17.20;31.60
254;DHT22;590;48.772;8.846;2022-09-17T10:31:15;17.40;29.40
254;DHT22;590;48.772;8.846;2022-09-17T10:33:52;17.60;32.10
254;DHT22;590;48.772;8.846;2022-09-17T10:36:40;17.90;28.50
254;DHT22;590;48.772;8.846;2022-09-17T10:39:18;17.90;25.40
254;DHT22;590;48.772;8.846;2022-09-17T10:41:53;17.60;21.90
254;DHT22;590;48.772;8.846;2022-09-17T10:44:22;17.30;24.00
254;DHT22;590;48.772;8.846;2022-09-17T10:46:51;17.10;24.40
254;DHT22;590;48.772;8.846;2022-09-17T10:49:33;17.00;25.10
254;DHT22;590;48.772;8.846;2022-09-17T10:52:23;17.10;25.50
254;DHT22;590;48.772;8.846;2022-09-17T10:55:01;17.40;25.80
254;DHT22;590;48.772;8.846;2022-09-17T10:57:41;17.60;23.00
254;DHT22;590;48.772;8.846;2022-09-17T11:00:14;17.70;21.70
254;DHT22;590;48.772;8.846;2022-09-17T11:03:20;17.70;22.80
254;DHT22;590;48.772;8.846;2022-09-17T11:06:22;17.60;22.80
254;DHT22;590;48.772;8.846;2022-09-17T11:09:04;17.60;22.30
254;DHT22;590;48.772;8.846;2022-09-17T11:11:44;17.60;23.10
254;DHT22;590;48.772;8.846;2022-09-17T11:14:24;17.60;20.50
254;DHT22;590;48.772;8.846;2022-09-17T11:17:06;17.60;22.00
254;DHT22;590;48.772;8.846;2022-09-17T11:19:44;17.70;22.50
254;DHT22;590;48.772;8.846;2022-09-17T11:22:18;17.80;21.90
254;DHT22;590;48.772;8.846;2022-09-17T11:28:02;18.10;21.00
254;DHT22;590;48.772;8.846;2022-09-17T11:30:44;18.20;20.30
254;DHT22;590;48.772;8.846;2022-09-17T11:33:31;18.40;20.00
254;DHT22;590;48.772;8.846;2022-09-17T11:36:10;18.50;20.00
254;DHT22;590;48.772;8.846;2022-09-17T11:38:42;18.60;19.90
254;DHT22;590;48.772;8.846;2022-09-17T11:41:15;18.70;19.20
254;DHT22;590;48.772;8.846;2022-09-17T11:43:48;18.80;14.20
254;DHT22;590;48.772;8.846;2022-09-17T11:46:21;18.90;14.10
254;DHT22;590;48.772;8.846;2022-09-17T11:48:54;19.00;13.50
254;DHT22;590;48.772;8.846;2022-09-17T11:51:29;19.00;12.00
254;DHT22;590;48.772;8.846;2022-09-17T11:54:01;19.00;11.70
254;DHT22;590;48.772;8.846;2022-09-17T11:56:37;18.90;12.60
254;DHT22;590;48.772;8.846;2022-09-17T11:59:12;18.80;14.00
254;DHT22;590;48.772;8.846;2022-09-17T12:01:45;18.70;12.30
254;DHT22;590;48.772;8.846;2022-09-17T12:04:28;18.60;13.40
254;DHT22;590;48.772;8.846;2022-09-17T12:07:03;18.60;12.60
254;DHT22;590;48.772;8.846;2022-09-17T12:09:35;18.40;11.80
254;DHT22;590;48.772;8.846;2022-09-17T12:12:10;18.40;13.70
254;DHT22;590;48.772;8.846;2022-09-17T12:15:06;18.50;13.10
254;DHT22;590;48.772;8.846;2022-09-17T12:17:43;18.40;12.80
254;DHT22;590;48.772;8.846;2022-09-17T12:20:23;18.40;13.70
254;DHT22;590;48.772;8.846;2022-09-17T12:22:55;18.40;13.60
254;DHT22;590;48.772;8.846;2022-09-17T12:25:25;18.40;15.00
254;DHT22;590;48.772;8.846;2022-09-17T12:28:04;18.20;15.00
254;DHT22;590;48.772;8.846;2022-09-17T12:30:39;17.90;18.10
254;DHT22;590;48.772;8.846;2022-09-17T12:33:18;17.60;21.70
254;DHT22;590;48.772;8.846;2022-09-17T12:36:19;17.40;21.90
254;DHT22;590;48.772;8.846;2022-09-17T12:39:01;17.30;23.20
254;DHT22;590;48.772;8.846;2022-09-17T12:41:40;17.20;21.10
254;DHT22;590;48.772;8.846;2022-09-17T12:44:27;17.00;18.10
254;DHT22;590;48.772;8.846;2022-09-17T12:47:19;16.60;21.20
254;DHT22;590;48.772;8.846;2022-09-17T12:50:01;16.10;24.60
254;DHT22;590;48.772;8.846;2022-09-17T12:52:41;15.60;39.20
254;DHT22;590;48.772;8.846;2022-09-17T12:55:23;15.10;43.80
254;DHT22;590;48.772;8.846;2022-09-17T12:58:00;14.70;50.60
254;DHT22;590;48.772;8.846;2022-09-17T13:00:37;14.40;55.20
254;DHT22;590;48.772;8.846;2022-09-17T13:03:14;14.20;57.60
254;DHT22;590;48.772;8.846;2022-09-17T13:06:05;14.00;61.30
254;DHT22;590;48.772;8.846;2022-09-17T13:08:59;13.90;67.50
254;DHT22;590;48.772;8.846;2022-09-17T13:11:55;14.00;70.80
254;DHT22;590;48.772;8.846;2022-09-17T13:14:40;14.20;72.20
254;DHT22;590;48.772;8.846;2022-09-17T13:17:18;14.40;73.40
254;DHT22;590;48.772;8.846;2022-09-17T13:19:59;14.60;72.90
254;DHT22;590;48.772;8.846;2022-09-17T13:22:29;14.80;71.90
254;DHT22;590;48.772;8.846;2022-09-17T13:25:03;15.00;70.20
254;DHT22;590;48.772;8.846;2022-09-17T13:27:32;15.20;68.90
254;DHT22;590;48.772;8.846;2022-09-17T13:30:05;15.40;68.40
254;DHT22;590;48.772;8.846;2022-09-17T13:32:51;15.50;66.20
254;DHT22;590;48.772;8.846;2022-09-17T13:35:48;15.60;65.60
254;DHT22;590;48.772;8.846;2022-09-17T13:38:17;15.80;67.10
254;DHT22;590;48.772;8.846;2022-09-17T13:40:50;15.90;65.90
254;DHT22;590;48.772;8.846;2022-09-17T13:43:21;16.00;63.30
254;DHT22;590;48.772;8.846;2022-09-17T13:46:13;16.20;63.00
254;DHT22;590;48.772;8.846;2022-09-17T13:48:56;16.30;61.20
254;DHT22;590;48.772;8.846;2022-09-17T13:51:56;16.50;59.30
254;DHT22;590;48.772;8.846;2022-09-17T13:54:35;16.50;55.80
254;DHT22;590;48.772;8.846;2022-09-17T13:57:10;16.50;52.20
254;DHT22;590;48.772;8.846;2022-09-17T13:59:51;16.50;52.80
254;DHT22;590;48.772;8.846;2022-09-17T14:02:32;16.60;49.40
254;DHT22;590;48.772;8.846;2022-09-17T14:05:34;16.60;48.30
254;DHT22;590;48.772;8.846;2022-09-17T14:08:24;16.60;48.20
254;DHT22;590;48.772;8.846;2022-09-17T14:10:55;16.50;45.60
254;DHT22;590;48.772;8.846;2022-09-17T14:13:41;16.50;45.30
254;DHT22;590;48.772;8.846;2022-09-17T14:16:31;16.50;44.50
254;DHT22;590;48.772;8.846;2022-09-17T14:19:11;16.40;42.00
254;DHT22;590;48.772;8.846;2022-09-17T14:21:56;16.40;43.50
254;DHT22;590;48.772;8.846;2022-09-17T14:24:35;16.40;45.90
254;DHT22;590;48.772;8.846;2022-09-17T14:27:10;16.40;43.40
254;DHT22;590;48.772;8.846;2022-09-17T14:30:02;16.30;42.60
254;DHT22;590;48.772;8.846;2022-09-17T14:32:38;16.30;42.20
254;DHT22;590;48.772;8.846;2022-09-17T14:35:17;16.30;40.00
254;DHT22;590;48.772;8.846;2022-09-17T14:37:52;16.40;42.10
254;DHT22;590;48.772;8.846;2022-09-17T14:40:23;16.40;41.90
254;DHT22;590;48.772;8.846;2022-09-17T14:42:53;16.50;41.30
254;DHT22;590;48.772;8.846;2022-09-17T14:45:25;16.40;41.00
254;DHT22;590;48.772;8.846;2022-09-17T14:48:23;16.50;41.70
254;DHT22;590;48.772;8.846;2022-09-17T14:51:00;16.50;40.30
254;DHT22;590;48.772;8.846;2022-09-17T14:53:38;16.40;40.70
254;DHT22;590;48.772;8.846;2022-09-17T14:56:09;16.40;40.20
254;DHT22;590;48.772;8.846;2022-09-17T14:58:41;16.30;39.30
254;DHT22;590;48.772;8.846;2022-09-17T15:01:21;16.20;39.40
254;DHT22;590;48.772;8.846;2022-09-17T15:03:53;16.20;40.60
254;DHT22;590;48.772;8.846;2022-09-17T15:06:34;16.20;40.60
254;DHT22;590;48.772;8.846;2022-09-17T15:09:03;16.10;39.60
254;DHT22;590;48.772;8.846;2022-09-17T15:11:34;16.00;38.50
254;DHT22;590;48.772;8.846;2022-09-17T15:14:14;15.90;39.20
254;DHT22;590;48.772;8.846;2022-09-17T15:16:47;15.90;40.30
254;DHT22;590;48.772;8.846;2022-09-17T15:19:23;15.80;42.30
254;DHT22;590;48.772;8.846;2022-09-17T15:21:52;15.80;42.70
254;DHT22;590;48.772;8.846;2022-09-17T15:24:31;15.70;42.80
254;DHT22;590;48.772;8.846;2022-09-17T15:27:05;15.80;42.90
254;DHT22;590;48.772;8.846;2022-09-17T15:29:38;15.80;42.30
254;DHT22;590;48.772;8.846;2022-09-17T15:32:11;15.80;39.60
254;DHT22;590;48.772;8.846;2022-09-17T15:34:39;15.80;40.50
254;DHT22;590;48.772;8.846;2022-09-17T15:37:16;15.80;40.40
254;DHT22;590;48.772;8.846;2022-09-17T15:39:50;15.70;40.90
254;DHT22;590;48.772;8.846;2022-09-17T15:42:22;15.60;40.60
254;DHT22;590;48.772;8.846;2022-09-17T15:44:52;15.50;41.90
254;DHT22;590;48.772;8.846;2022-09-17T15:50:22;15.30;41.90
254;DHT22;590;48.772;8.846;2022-09-17T15:53:09;15.10;42.40
254;DHT22;590;48.772;8.846;2022-09-17T15:55:41;15.00;44.00
254;DHT22;590;48.772;8.846;2022-09-17T15:58:22;14.90;46.40
254;DHT22;590;48.772;8.846;2022-09-17T16:04:24;14.90;48.80
254;DHT22;590;48.772;8.846;2022-09-17T16:07:02;14.90;49.10
254;DHT22;590;48.772;8.846;2022-09-17T16:09:47;15.00;46.70
254;DHT22;590;48.772;8.846;2022-09-17T16:12:19;15.10;46.90
254;DHT22;590;48.772;8.846;2022-09-17T16:14:51;15.20;47.40
254;DHT22;590;48.772;8.846;2022-09-17T16:17:22;15.30;42.90
254;DHT22;590;48.772;8.846;2022-09-17T16:19:51;15.30;42.10
254;DHT22;590;48.772;8.846;2022-09-17T16:22:19;15.20;42.40
254;DHT22;590;48.772;8.846;2022-09-17T16:24:47;15.20;42.70
254;DHT22;590;48.772;8.846;2022-09-17T16:27:18;15.10;41.80
254;DHT22;590;48.772;8.846;2022-09-17T16:29:48;15.10;41.70
254;DHT22;590;48.772;8.846;2022-09-17T16:32:16;15.00;41.80
254;DHT22;590;48.772;8.846;2022-09-17T16:34:44;14.90;42.40
254;DHT22;590;48.772;8.846;2022-09-17T16:37:12;14.80;42.50
254;DHT22;590;48.772;8.846;2022-09-17T16:39:40;14.70;43.50
254;DHT22;590;48.772;8.846;2022-09-17T16:42:08;14.60;43.10
254;DHT22;590;48.772;8.846;2022-09-17T16:44:37;14.50;45.90
254;DHT22;590;48.772;8.846;2022-09-17T16:47:05;14.40;46.30
254;DHT22;590;48.772;8.846;2022-09-17T16:49:33;14.40;47.00
254;DHT22;590;48.772;8.846;2022-09-17T16:52:01;14.30;47.30
254;DHT22;590;48.772;8.846;2022-09-17T16:54:29;14.30;49.80
254;DHT22;590;48.772;8.846;2022-09-17T16:56:57;14.20;50.60
254;DHT22;590;48.772;8.846;2022-09-17T16:59:26;14.10;51.70
254;DHT22;590;48.772;8.846;2022-09-17T17:01:55;14.00;51.90
254;DHT22;590;48.772;8.846;2022-09-17T17:04:23;13.90;56.50
254;DHT22;590;48.772;8.846;2022-09-17T17:06:51;13.80;58.70
254;DHT22;590;48.772;8.846;2022-09-17T17:09:19;13.80;61.20
254;DHT22;590;48.772;8.846;2022-09-17T17:11:47;13.80;61.20
254;DHT22;590;48.772;8.846;2022-09-17T17:14:16;13.70;62.20
254;DHT22;590;48.772;8.846;2022-09-17T17:16:44;13.60;62.50
254;DHT22;590;48.772;8.846;2022-09-17T17:19:13;13.60;63.40
254;DHT22;590;48.772;8.846;2022-09-17T17:21:41;13.50;64.30
254;DHT22;590;48.772;8.846;2022-09-17T17:24:13;13.50;66.00
254;DHT22;590;48.772;8.846;2022-09-17T17:26:41;13.40;67.70
254;DHT22;590;48.772;8.846;2022-09-17T17:29:08;13.30;71.30
254;DHT22;590;48.772;8.846;2022-09-17T17:31:37;13.20;76.20
254;DHT22;590;48.772;8.846;2022-09-17T17:34:05;13.20;76.80